This is the latest recevied weather packets stored in our database for station/object TA3MHA. If no packets are shown the sender has not sent any weather packets the latest 1 day(s).
| Time | Temp. | Humidity | Pressure | Rain* | Wind** | Luminosity | Snow |
|---|---|---|---|---|---|---|---|
| 1778097901 | 12.22° C | 69% | - | 0 mm | - | 0 W/m² | - |
| 1778094301 | 12.22° C | 70% | - | 0 mm | - | 0 W/m² | - |
| 1778090401 | 14.44° C | 63% | - | 0 mm | - | 0 W/m² | - |
| 1778088601 | 15.56° C | 57% | - | 0 mm | - | 0 W/m² | - |
| 1778088301 | 16.67° C | 52% | - | 0 mm | - | 0 W/m² | - |
| 1778083801 | 20.56° C | 38% | - | 0 mm | - | 64 W/m² | - |
| 1778083201 | 20.56° C | 38% | - | 0 mm | - | 80 W/m² | - |
| 1778080501 | 21.11° C | 39% | - | 0 mm | - | 186 W/m² | - |
| 1778079001 | 21.67° C | 37% | - | 0 mm | - | 252 W/m² | - |
| 1778077501 | 22.22° C | 35% | - | 0 mm | - | 331 W/m² | - |
| 1778076601 | 22.78° C | 35% | - | 0 mm | - | 381 W/m² | - |
| 1778071501 | 23.33° C | 34% | - | 0 mm | - | 640 W/m² | - |
| 1778070601 | 23.33° C | 34% | - | 0 mm | - | 671 W/m² | - |
| 1778070301 | 23.33° C | 35% | - | 0 mm | - | 683 W/m² | - |
| 1778067901 | 23.33° C | 35% | - | 0 mm | - | 772 W/m² | - |
| 1778065801 | 22.78° C | 36% | - | 0 mm | - | 818 W/m² | - |
| 1778062201 | 21.67° C | 39% | - | 0 mm | - | 861 W/m² | - |
| 1778058901 | 21.67° C | 33% | - | 0 mm | - | 840 W/m² | - |
| 1778056801 | 21.67° C | 36% | - | 0 mm | - | 798 W/m² | - |
| 1778055001 | 21.11° C | 36% | - | 0 mm | - | 749 W/m² | - |
| 1778052300 | 19.44° C | 46% | - | 0 mm | - | 646 W/m² | - |
| 1778052001 | 18.33° C | 47% | - | 0 mm | - | 634 W/m² | - |
| 1778049601 | 17.78° C | 52% | - | 0 mm | - | 521 W/m² | - |
| 1778048100 | 16.67° C | 51% | - | 0 mm | - | 441 W/m² | - |
| 1778046900 | 17.22° C | 51% | - | 0 mm | - | 377 W/m² | - |
* Rain latest hour (hover to see other rain measurements)
** Current wind speed in m/s (hover to see current wind gust speed)